sensor_id;sensor_type;location;lat;lon;timestamp;P1;durP1;ratioP1;P2;durP2;ratioP2
18659;SDS011;9459;50.254;19.014;2023-02-26T00:01:39;14.68;;;7.63;;
18659;SDS011;9459;50.254;19.014;2023-02-26T00:04:08;12.65;;;6.88;;
18659;SDS011;9459;50.254;19.014;2023-02-26T00:06:38;16.60;;;8.45;;
18659;SDS011;9459;50.254;19.014;2023-02-26T00:09:20;12.98;;;5.93;;
18659;SDS011;9459;50.254;19.014;2023-02-26T00:11:51;12.63;;;6.93;;
18659;SDS011;9459;50.254;19.014;2023-02-26T00:14:19;19.50;;;9.73;;
18659;SDS011;9459;50.254;19.014;2023-02-26T00:16:49;15.70;;;8.15;;
18659;SDS011;9459;50.254;19.014;2023-02-26T00:19:22;13.63;;;6.85;;
18659;SDS011;9459;50.254;19.014;2023-02-26T00:21:51;14.85;;;7.32;;
18659;SDS011;9459;50.254;19.014;2023-02-26T00:24:19;17.42;;;8.55;;
18659;SDS011;9459;50.254;19.014;2023-02-26T00:26:48;15.60;;;7.85;;
18659;SDS011;9459;50.254;19.014;2023-02-26T00:29:18;24.38;;;9.18;;
18659;SDS011;9459;50.254;19.014;2023-02-26T00:31:47;29.27;;;14.60;;
18659;SDS011;9459;50.254;19.014;2023-02-26T00:34:16;23.85;;;12.75;;
18659;SDS011;9459;50.254;19.014;2023-02-26T00:36:47;18.23;;;10.05;;
18659;SDS011;9459;50.254;19.014;2023-02-26T00:39:24;15.75;;;9.05;;
18659;SDS011;9459;50.254;19.014;2023-02-26T00:41:59;10.85;;;6.63;;
18659;SDS011;9459;50.254;19.014;2023-02-26T00:44:30;11.05;;;7.10;;
18659;SDS011;9459;50.254;19.014;2023-02-26T00:47:00;11.75;;;6.50;;
18659;SDS011;9459;50.254;19.014;2023-02-26T00:49:43;10.02;;;6.43;;
18659;SDS011;9459;50.254;19.014;2023-02-26T00:52:19;11.23;;;6.40;;
18659;SDS011;9459;50.254;19.014;2023-02-26T00:54:53;12.50;;;6.45;;
18659;SDS011;9459;50.254;19.014;2023-02-26T00:57:21;10.90;;;7.45;;
18659;SDS011;9459;50.254;19.014;2023-02-26T00:59:51;11.13;;;6.90;;
18659;SDS011;9459;50.254;19.014;2023-02-26T01:02:21;10.15;;;6.15;;
18659;SDS011;9459;50.254;19.014;2023-02-26T01:04:50;10.30;;;5.90;;
18659;SDS011;9459;50.254;19.014;2023-02-26T01:07:20;10.15;;;6.03;;
18659;SDS011;9459;50.254;19.014;2023-02-26T01:12:19;11.38;;;6.30;;
18659;SDS011;9459;50.254;19.014;2023-02-26T01:14:48;10.50;;;6.30;;
18659;SDS011;9459;50.254;19.014;2023-02-26T01:17:20;9.38;;;6.32;;
18659;SDS011;9459;50.254;19.014;2023-02-26T01:19:51;11.60;;;6.18;;
18659;SDS011;9459;50.254;19.014;2023-02-26T01:24:52;11.88;;;6.18;;
18659;SDS011;9459;50.254;19.014;2023-02-26T01:27:23;7.75;;;4.93;;
18659;SDS011;9459;50.254;19.014;2023-02-26T01:29:52;9.60;;;5.10;;
18659;SDS011;9459;50.254;19.014;2023-02-26T01:32:23;7.63;;;5.20;;
18659;SDS011;9459;50.254;19.014;2023-02-26T01:34:56;6.82;;;5.05;;
18659;SDS011;9459;50.254;19.014;2023-02-26T01:37:29;9.23;;;6.03;;
18659;SDS011;9459;50.254;19.014;2023-02-26T01:40:08;8.90;;;5.78;;
18659;SDS011;9459;50.254;19.014;2023-02-26T01:43:15;7.82;;;5.63;;
18659;SDS011;9459;50.254;19.014;2023-02-26T01:45:53;7.32;;;5.32;;
18659;SDS011;9459;50.254;19.014;2023-02-26T01:48:28;9.65;;;7.05;;
18659;SDS011;9459;50.254;19.014;2023-02-26T01:51:03;11.40;;;7.10;;
18659;SDS011;9459;50.254;19.014;2023-02-26T01:53:32;9.60;;;6.40;;
18659;SDS011;9459;50.254;19.014;2023-02-26T01:56:02;9.43;;;6.70;;
18659;SDS011;9459;50.254;19.014;2023-02-26T01:58:43;7.95;;;7.03;;
18659;SDS011;9459;50.254;19.014;2023-02-26T02:01:11;8.13;;;5.82;;
18659;SDS011;9459;50.254;19.014;2023-02-26T02:03:41;9.15;;;5.72;;
18659;SDS011;9459;50.254;19.014;2023-02-26T02:06:13;10.32;;;6.38;;
18659;SDS011;9459;50.254;19.014;2023-02-26T02:08:45;8.07;;;6.20;;
18659;SDS011;9459;50.254;19.014;2023-02-26T02:11:14;7.57;;;4.88;;
18659;SDS011;9459;50.254;19.014;2023-02-26T02:13:47;6.57;;;3.70;;
18659;SDS011;9459;50.254;19.014;2023-02-26T02:16:25;5.53;;;3.33;;
18659;SDS011;9459;50.254;19.014;2023-02-26T02:19:03;5.25;;;3.22;;
18659;SDS011;9459;50.254;19.014;2023-02-26T02:21:51;4.53;;;3.08;;
18659;SDS011;9459;50.254;19.014;2023-02-26T02:24:24;6.03;;;3.13;;
18659;SDS011;9459;50.254;19.014;2023-02-26T02:27:02;5.30;;;3.67;;
18659;SDS011;9459;50.254;19.014;2023-02-26T02:29:40;7.55;;;3.55;;
18659;SDS011;9459;50.254;19.014;2023-02-26T02:32:35;6.70;;;4.65;;
18659;SDS011;9459;50.254;19.014;2023-02-26T02:35:08;8.43;;;4.60;;
18659;SDS011;9459;50.254;19.014;2023-02-26T02:37:40;7.20;;;5.38;;
18659;SDS011;9459;50.254;19.014;2023-02-26T02:40:13;8.07;;;4.90;;
18659;SDS011;9459;50.254;19.014;2023-02-26T02:42:44;7.93;;;5.40;;
18659;SDS011;9459;50.254;19.014;2023-02-26T02:45:19;7.90;;;6.05;;
18659;SDS011;9459;50.254;19.014;2023-02-26T02:47:51;8.50;;;6.13;;
18659;SDS011;9459;50.254;19.014;2023-02-26T02:50:25;7.28;;;5.40;;
18659;SDS011;9459;50.254;19.014;2023-02-26T02:53:00;8.18;;;5.65;;
18659;SDS011;9459;50.254;19.014;2023-02-26T02:55:31;6.40;;;4.78;;
18659;SDS011;9459;50.254;19.014;2023-02-26T02:58:01;7.05;;;5.50;;
18659;SDS011;9459;50.254;19.014;2023-02-26T03:00:31;5.82;;;4.78;;
18659;SDS011;9459;50.254;19.014;2023-02-26T03:03:05;6.10;;;4.40;;
18659;SDS011;9459;50.254;19.014;2023-02-26T03:05:38;7.60;;;4.60;;
18659;SDS011;9459;50.254;19.014;2023-02-26T03:08:07;6.22;;;4.50;;
18659;SDS011;9459;50.254;19.014;2023-02-26T03:10:37;7.10;;;3.72;;
18659;SDS011;9459;50.254;19.014;2023-02-26T03:13:10;6.45;;;3.53;;
18659;SDS011;9459;50.254;19.014;2023-02-26T03:15:44;5.10;;;3.45;;
18659;SDS011;9459;50.254;19.014;2023-02-26T03:18:22;7.43;;;3.50;;
18659;SDS011;9459;50.254;19.014;2023-02-26T03:20:55;5.15;;;3.38;;
18659;SDS011;9459;50.254;19.014;2023-02-26T03:23:29;10.02;;;5.75;;
18659;SDS011;9459;50.254;19.014;2023-02-26T03:26:02;7.53;;;4.90;;
18659;SDS011;9459;50.254;19.014;2023-02-26T03:28:38;6.88;;;3.92;;
18659;SDS011;9459;50.254;19.014;2023-02-26T03:31:14;5.43;;;3.30;;
18659;SDS011;9459;50.254;19.014;2023-02-26T03:33:48;5.20;;;3.30;;
18659;SDS011;9459;50.254;19.014;2023-02-26T03:36:21;4.70;;;3.03;;
18659;SDS011;9459;50.254;19.014;2023-02-26T03:38:54;4.75;;;2.38;;
18659;SDS011;9459;50.254;19.014;2023-02-26T03:41:27;4.47;;;2.85;;
18659;SDS011;9459;50.254;19.014;2023-02-26T03:43:58;5.38;;;3.40;;
18659;SDS011;9459;50.254;19.014;2023-02-26T03:46:29;7.30;;;3.20;;
18659;SDS011;9459;50.254;19.014;2023-02-26T03:49:03;5.07;;;3.47;;
18659;SDS011;9459;50.254;19.014;2023-02-26T03:51:34;6.57;;;3.40;;
18659;SDS011;9459;50.254;19.014;2023-02-26T03:54:04;6.28;;;3.35;;
18659;SDS011;9459;50.254;19.014;2023-02-26T03:56:36;6.70;;;3.35;;
18659;SDS011;9459;50.254;19.014;2023-02-26T03:59:07;7.50;;;3.72;;
18659;SDS011;9459;50.254;19.014;2023-02-26T04:01:40;7.28;;;3.80;;
18659;SDS011;9459;50.254;19.014;2023-02-26T04:04:14;6.32;;;3.95;;
18659;SDS011;9459;50.254;19.014;2023-02-26T04:06:44;6.30;;;3.88;;
18659;SDS011;9459;50.254;19.014;2023-02-26T04:09:13;6.60;;;4.00;;
18659;SDS011;9459;50.254;19.014;2023-02-26T04:11:42;6.72;;;4.18;;
18659;SDS011;9459;50.254;19.014;2023-02-26T04:14:10;9.15;;;4.63;;
18659;SDS011;9459;50.254;19.014;2023-02-26T04:16:39;8.88;;;4.75;;
18659;SDS011;9459;50.254;19.014;2023-02-26T04:19:08;12.30;;;5.60;;
18659;SDS011;9459;50.254;19.014;2023-02-26T04:21:38;8.48;;;4.45;;
18659;SDS011;9459;50.254;19.014;2023-02-26T04:24:06;7.63;;;3.63;;
18659;SDS011;9459;50.254;19.014;2023-02-26T04:26:35;8.25;;;3.92;;
18659;SDS011;9459;50.254;19.014;2023-02-26T04:29:03;8.18;;;4.60;;
18659;SDS011;9459;50.254;19.014;2023-02-26T04:31:32;6.35;;;3.70;;
18659;SDS011;9459;50.254;19.014;2023-02-26T04:34:00;8.07;;;3.78;;
18659;SDS011;9459;50.254;19.014;2023-02-26T04:36:29;6.82;;;4.07;;
18659;SDS011;9459;50.254;19.014;2023-02-26T04:38:59;6.38;;;3.33;;
18659;SDS011;9459;50.254;19.014;2023-02-26T04:41:27;6.65;;;3.40;;
18659;SDS011;9459;50.254;19.014;2023-02-26T04:43:56;5.35;;;3.10;;
18659;SDS011;9459;50.254;19.014;2023-02-26T04:46:24;6.63;;;2.85;;
18659;SDS011;9459;50.254;19.014;2023-02-26T04:48:53;9.60;;;3.35;;
18659;SDS011;9459;50.254;19.014;2023-02-26T04:51:21;5.57;;;3.25;;
18659;SDS011;9459;50.254;19.014;2023-02-26T04:53:53;6.03;;;3.63;;
18659;SDS011;9459;50.254;19.014;2023-02-26T04:56:23;5.47;;;3.20;;
18659;SDS011;9459;50.254;19.014;2023-02-26T04:58:52;6.40;;;3.78;;
18659;SDS011;9459;50.254;19.014;2023-02-26T05:01:20;7.50;;;4.05;;
18659;SDS011;9459;50.254;19.014;2023-02-26T05:03:49;6.85;;;3.55;;
18659;SDS011;9459;50.254;19.014;2023-02-26T05:06:17;6.47;;;3.60;;
18659;SDS011;9459;50.254;19.014;2023-02-26T05:08:46;5.82;;;3.75;;
18659;SDS011;9459;50.254;19.014;2023-02-26T05:11:14;7.68;;;3.90;;
18659;SDS011;9459;50.254;19.014;2023-02-26T05:13:44;9.23;;;5.50;;
18659;SDS011;9459;50.254;19.014;2023-02-26T05:16:13;7.63;;;4.20;;
18659;SDS011;9459;50.254;19.014;2023-02-26T05:18:42;9.82;;;5.28;;
18659;SDS011;9459;50.254;19.014;2023-02-26T05:21:11;9.98;;;4.95;;
18659;SDS011;9459;50.254;19.014;2023-02-26T05:23:39;9.20;;;5.40;;
18659;SDS011;9459;50.254;19.014;2023-02-26T05:26:08;8.38;;;5.10;;
18659;SDS011;9459;50.254;19.014;2023-02-26T05:28:36;7.85;;;4.65;;
18659;SDS011;9459;50.254;19.014;2023-02-26T05:31:06;7.88;;;4.70;;
18659;SDS011;9459;50.254;19.014;2023-02-26T05:33:35;6.30;;;4.40;;
18659;SDS011;9459;50.254;19.014;2023-02-26T05:36:03;5.90;;;4.28;;
18659;SDS011;9459;50.254;19.014;2023-02-26T05:38:33;8.00;;;4.10;;
18659;SDS011;9459;50.254;19.014;2023-02-26T05:41:02;6.43;;;3.97;;
18659;SDS011;9459;50.254;19.014;2023-02-26T05:43:30;8.77;;;3.83;;
18659;SDS011;9459;50.254;19.014;2023-02-26T05:45:59;5.57;;;3.67;;
18659;SDS011;9459;50.254;19.014;2023-02-26T05:48:29;20.63;;;7.15;;
18659;SDS011;9459;50.254;19.014;2023-02-26T05:50:57;11.82;;;4.90;;
18659;SDS011;9459;50.254;19.014;2023-02-26T05:53:26;9.50;;;4.82;;
18659;SDS011;9459;50.254;19.014;2023-02-26T05:55:54;25.00;;;9.77;;
18659;SDS011;9459;50.254;19.014;2023-02-26T05:58:23;24.35;;;9.85;;
18659;SDS011;9459;50.254;19.014;2023-02-26T06:00:51;8.07;;;4.50;;
18659;SDS011;9459;50.254;19.014;2023-02-26T06:03:19;6.90;;;3.42;;
18659;SDS011;9459;50.254;19.014;2023-02-26T06:05:49;8.95;;;5.25;;
18659;SDS011;9459;50.254;19.014;2023-02-26T06:08:18;8.60;;;4.90;;
18659;SDS011;9459;50.254;19.014;2023-02-26T06:10:46;5.15;;;4.10;;
18659;SDS011;9459;50.254;19.014;2023-02-26T06:13:17;6.00;;;4.13;;
18659;SDS011;9459;50.254;19.014;2023-02-26T06:15:46;4.97;;;3.20;;
18659;SDS011;9459;50.254;19.014;2023-02-26T06:18:16;6.17;;;3.60;;
18659;SDS011;9459;50.254;19.014;2023-02-26T06:20:45;7.20;;;3.72;;
18659;SDS011;9459;50.254;19.014;2023-02-26T06:23:14;5.47;;;3.38;;
18659;SDS011;9459;50.254;19.014;2023-02-26T06:25:43;7.30;;;4.05;;
18659;SDS011;9459;50.254;19.014;2023-02-26T06:28:11;8.10;;;4.28;;
18659;SDS011;9459;50.254;19.014;2023-02-26T06:30:40;7.85;;;4.10;;
18659;SDS011;9459;50.254;19.014;2023-02-26T06:33:08;8.85;;;4.88;;
18659;SDS011;9459;50.254;19.014;2023-02-26T06:35:36;7.38;;;4.53;;
18659;SDS011;9459;50.254;19.014;2023-02-26T06:38:05;7.95;;;4.80;;
18659;SDS011;9459;50.254;19.014;2023-02-26T06:40:35;9.07;;;5.30;;
18659;SDS011;9459;50.254;19.014;2023-02-26T06:43:03;9.60;;;4.65;;
18659;SDS011;9459;50.254;19.014;2023-02-26T06:45:32;10.40;;;5.38;;
18659;SDS011;9459;50.254;19.014;2023-02-26T06:48:00;33.22;;;13.02;;
18659;SDS011;9459;50.254;19.014;2023-02-26T06:50:29;20.23;;;9.55;;
18659;SDS011;9459;50.254;19.014;2023-02-26T06:52:57;20.17;;;9.63;;
18659;SDS011;9459;50.254;19.014;2023-02-26T06:55:26;22.45;;;9.98;;
18659;SDS011;9459;50.254;19.014;2023-02-26T06:57:56;18.27;;;8.88;;
18659;SDS011;9459;50.254;19.014;2023-02-26T07:00:25;11.03;;;5.87;;
18659;SDS011;9459;50.254;19.014;2023-02-26T07:02:53;11.73;;;5.95;;
18659;SDS011;9459;50.254;19.014;2023-02-26T07:05:22;9.88;;;6.00;;
18659;SDS011;9459;50.254;19.014;2023-02-26T07:07:50;10.95;;;6.72;;
18659;SDS011;9459;50.254;19.014;2023-02-26T07:10:19;10.65;;;5.55;;
18659;SDS011;9459;50.254;19.014;2023-02-26T07:12:48;9.80;;;5.38;;
18659;SDS011;9459;50.254;19.014;2023-02-26T07:15:18;10.30;;;6.57;;
18659;SDS011;9459;50.254;19.014;2023-02-26T07:17:46;9.88;;;6.35;;
18659;SDS011;9459;50.254;19.014;2023-02-26T07:20:14;10.35;;;6.05;;
18659;SDS011;9459;50.254;19.014;2023-02-26T07:22:44;13.18;;;6.50;;
18659;SDS011;9459;50.254;19.014;2023-02-26T07:25:13;12.05;;;7.47;;
18659;SDS011;9459;50.254;19.014;2023-02-26T07:27:41;20.45;;;9.55;;
18659;SDS011;9459;50.254;19.014;2023-02-26T07:30:10;15.07;;;8.48;;
18659;SDS011;9459;50.254;19.014;2023-02-26T07:32:41;15.88;;;9.13;;
18659;SDS011;9459;50.254;19.014;2023-02-26T07:35:10;23.70;;;12.17;;
18659;SDS011;9459;50.254;19.014;2023-02-26T07:37:39;29.80;;;15.32;;
18659;SDS011;9459;50.254;19.014;2023-02-26T07:40:08;20.33;;;11.45;;
18659;SDS011;9459;50.254;19.014;2023-02-26T07:42:38;21.83;;;12.23;;
18659;SDS011;9459;50.254;19.014;2023-02-26T07:45:07;21.92;;;14.98;;
18659;SDS011;9459;50.254;19.014;2023-02-26T07:47:36;72.85;;;50.83;;
18659;SDS011;9459;50.254;19.014;2023-02-26T07:50:07;44.13;;;32.53;;
18659;SDS011;9459;50.254;19.014;2023-02-26T07:55:05;14.95;;;11.88;;
18659;SDS011;9459;50.254;19.014;2023-02-26T07:57:33;15.30;;;10.52;;
18659;SDS011;9459;50.254;19.014;2023-02-26T08:00:02;16.10;;;10.30;;
18659;SDS011;9459;50.254;19.014;2023-02-26T08:02:35;13.25;;;9.90;;
18659;SDS011;9459;50.254;19.014;2023-02-26T08:05:04;13.00;;;8.95;;
18659;SDS011;9459;50.254;19.014;2023-02-26T08:07:33;16.58;;;11.00;;
18659;SDS011;9459;50.254;19.014;2023-02-26T08:10:03;11.05;;;6.47;;
18659;SDS011;9459;50.254;19.014;2023-02-26T08:12:32;17.73;;;8.95;;
18659;SDS011;9459;50.254;19.014;2023-02-26T08:15:02;17.45;;;10.23;;
18659;SDS011;9459;50.254;19.014;2023-02-26T08:17:31;10.15;;;6.53;;
18659;SDS011;9459;50.254;19.014;2023-02-26T08:19:59;11.02;;;7.28;;
18659;SDS011;9459;50.254;19.014;2023-02-26T08:22:28;9.30;;;6.70;;
18659;SDS011;9459;50.254;19.014;2023-02-26T08:24:58;8.25;;;6.57;;
18659;SDS011;9459;50.254;19.014;2023-02-26T08:27:26;9.02;;;5.10;;
18659;SDS011;9459;50.254;19.014;2023-02-26T08:29:54;20.75;;;9.23;;
18659;SDS011;9459;50.254;19.014;2023-02-26T08:32:23;13.23;;;6.07;;
18659;SDS011;9459;50.254;19.014;2023-02-26T08:34:53;28.20;;;10.98;;
18659;SDS011;9459;50.254;19.014;2023-02-26T08:37:21;17.73;;;8.98;;
18659;SDS011;9459;50.254;19.014;2023-02-26T08:39:50;15.75;;;8.85;;
18659;SDS011;9459;50.254;19.014;2023-02-26T08:42:20;24.88;;;11.27;;
18659;SDS011;9459;50.254;19.014;2023-02-26T08:44:48;7.93;;;4.90;;
18659;SDS011;9459;50.254;19.014;2023-02-26T08:47:17;7.72;;;4.20;;
18659;SDS011;9459;50.254;19.014;2023-02-26T08:49:54;6.82;;;3.97;;
18659;SDS011;9459;50.254;19.014;2023-02-26T08:52:24;8.20;;;4.00;;
18659;SDS011;9459;50.254;19.014;2023-02-26T08:54:53;7.63;;;4.43;;
18659;SDS011;9459;50.254;19.014;2023-02-26T08:57:23;16.67;;;9.15;;
18659;SDS011;9459;50.254;19.014;2023-02-26T08:59:51;19.30;;;10.63;;
18659;SDS011;9459;50.254;19.014;2023-02-26T09:02:19;13.10;;;6.82;;
18659;SDS011;9459;50.254;19.014;2023-02-26T09:04:48;8.05;;;5.25;;
18659;SDS011;9459;50.254;19.014;2023-02-26T09:07:16;5.03;;;3.40;;
18659;SDS011;9459;50.254;19.014;2023-02-26T09:09:46;4.97;;;2.95;;
18659;SDS011;9459;50.254;19.014;2023-02-26T09:12:15;7.38;;;4.03;;
18659;SDS011;9459;50.254;19.014;2023-02-26T09:14:45;7.20;;;4.25;;
18659;SDS011;9459;50.254;19.014;2023-02-26T09:17:13;8.88;;;5.07;;
18659;SDS011;9459;50.254;19.014;2023-02-26T09:19:42;34.70;;;19.75;;
18659;SDS011;9459;50.254;19.014;2023-02-26T09:22:10;6.93;;;4.80;;
18659;SDS011;9459;50.254;19.014;2023-02-26T09:24:39;9.20;;;5.40;;
18659;SDS011;9459;50.254;19.014;2023-02-26T09:27:07;5.18;;;3.83;;
18659;SDS011;9459;50.254;19.014;2023-02-26T09:29:36;3.92;;;3.20;;
18659;SDS011;9459;50.254;19.014;2023-02-26T09:32:05;2.53;;;1.85;;
18659;SDS011;9459;50.254;19.014;2023-02-26T09:34:34;3.88;;;2.10;;
18659;SDS011;9459;50.254;19.014;2023-02-26T09:37:03;5.13;;;3.10;;
18659;SDS011;9459;50.254;19.014;2023-02-26T09:39:32;4.50;;;3.10;;
18659;SDS011;9459;50.254;19.014;2023-02-26T09:42:09;6.25;;;3.10;;
18659;SDS011;9459;50.254;19.014;2023-02-26T09:44:43;8.65;;;4.97;;
18659;SDS011;9459;50.254;19.014;2023-02-26T09:47:14;8.77;;;6.32;;
18659;SDS011;9459;50.254;19.014;2023-02-26T09:49:49;6.75;;;3.75;;
18659;SDS011;9459;50.254;19.014;2023-02-26T09:52:21;6.47;;;3.75;;
18659;SDS011;9459;50.254;19.014;2023-02-26T09:54:52;3.70;;;2.35;;
18659;SDS011;9459;50.254;19.014;2023-02-26T09:57:27;5.50;;;3.63;;
18659;SDS011;9459;50.254;19.014;2023-02-26T09:59:57;5.47;;;2.88;;
18659;SDS011;9459;50.254;19.014;2023-02-26T10:02:31;3.25;;;2.00;;
18659;SDS011;9459;50.254;19.014;2023-02-26T10:05:09;15.90;;;9.68;;
18659;SDS011;9459;50.254;19.014;2023-02-26T10:07:49;7.45;;;4.32;;
18659;SDS011;9459;50.254;19.014;2023-02-26T10:10:23;7.13;;;5.05;;
18659;SDS011;9459;50.254;19.014;2023-02-26T10:12:59;9.43;;;7.47;;
18659;SDS011;9459;50.254;19.014;2023-02-26T10:15:29;6.32;;;5.43;;
18659;SDS011;9459;50.254;19.014;2023-02-26T10:18:03;6.63;;;4.60;;
18659;SDS011;9459;50.254;19.014;2023-02-26T10:20:36;13.18;;;6.45;;
18659;SDS011;9459;50.254;19.014;2023-02-26T10:23:11;13.55;;;7.53;;
18659;SDS011;9459;50.254;19.014;2023-02-26T10:25:45;12.00;;;6.13;;
18659;SDS011;9459;50.254;19.014;2023-02-26T10:28:19;7.68;;;4.28;;
18659;SDS011;9459;50.254;19.014;2023-02-26T10:30:57;5.20;;;2.92;;
18659;SDS011;9459;50.254;19.014;2023-02-26T10:33:32;4.20;;;2.70;;
18659;SDS011;9459;50.254;19.014;2023-02-26T10:36:09;7.35;;;3.70;;
18659;SDS011;9459;50.254;19.014;2023-02-26T10:38:45;6.47;;;3.45;;
18659;SDS011;9459;50.254;19.014;2023-02-26T10:41:18;8.82;;;5.68;;
18659;SDS011;9459;50.254;19.014;2023-02-26T10:43:50;7.47;;;4.72;;
18659;SDS011;9459;50.254;19.014;2023-02-26T10:46:24;11.45;;;6.43;;
18659;SDS011;9459;50.254;19.014;2023-02-26T10:49:05;11.57;;;7.35;;
18659;SDS011;9459;50.254;19.014;2023-02-26T10:51:48;12.50;;;7.30;;
18659;SDS011;9459;50.254;19.014;2023-02-26T10:54:20;13.60;;;8.10;;
18659;SDS011;9459;50.254;19.014;2023-02-26T10:56:51;17.98;;;10.20;;
18659;SDS011;9459;50.254;19.014;2023-02-26T10:59:20;17.33;;;9.20;;
18659;SDS011;9459;50.254;19.014;2023-02-26T11:01:49;24.80;;;13.75;;
18659;SDS011;9459;50.254;19.014;2023-02-26T11:04:20;16.88;;;10.02;;
18659;SDS011;9459;50.254;19.014;2023-02-26T11:06:51;23.92;;;12.23;;
18659;SDS011;9459;50.254;19.014;2023-02-26T11:09:22;9.18;;;5.43;;
18659;SDS011;9459;50.254;19.014;2023-02-26T11:11:53;10.52;;;5.50;;
18659;SDS011;9459;50.254;19.014;2023-02-26T11:14:22;9.40;;;5.30;;
18659;SDS011;9459;50.254;19.014;2023-02-26T11:16:56;8.52;;;4.68;;
18659;SDS011;9459;50.254;19.014;2023-02-26T11:19:27;8.65;;;3.70;;
18659;SDS011;9459;50.254;19.014;2023-02-26T11:21:57;6.03;;;3.45;;
18659;SDS011;9459;50.254;19.014;2023-02-26T11:24:30;5.70;;;3.30;;
18659;SDS011;9459;50.254;19.014;2023-02-26T11:27:02;5.82;;;3.50;;
18659;SDS011;9459;50.254;19.014;2023-02-26T11:29:34;6.35;;;3.50;;
18659;SDS011;9459;50.254;19.014;2023-02-26T11:32:04;7.00;;;3.80;;
18659;SDS011;9459;50.254;19.014;2023-02-26T11:34:35;7.18;;;4.18;;
18659;SDS011;9459;50.254;19.014;2023-02-26T11:37:04;6.35;;;3.88;;
18659;SDS011;9459;50.254;19.014;2023-02-26T11:39:33;5.75;;;3.30;;
18659;SDS011;9459;50.254;19.014;2023-02-26T11:42:03;7.63;;;4.35;;
18659;SDS011;9459;50.254;19.014;2023-02-26T11:44:34;10.50;;;4.07;;
18659;SDS011;9459;50.254;19.014;2023-02-26T11:47:04;13.90;;;6.07;;
18659;SDS011;9459;50.254;19.014;2023-02-26T11:49:35;11.05;;;4.63;;
18659;SDS011;9459;50.254;19.014;2023-02-26T11:52:16;9.98;;;5.05;;
18659;SDS011;9459;50.254;19.014;2023-02-26T11:54:48;12.65;;;6.78;;
18659;SDS011;9459;50.254;19.014;2023-02-26T11:57:21;13.07;;;7.38;;
18659;SDS011;9459;50.254;19.014;2023-02-26T11:59:52;17.15;;;9.55;;
18659;SDS011;9459;50.254;19.014;2023-02-26T12:02:22;8.70;;;4.95;;
18659;SDS011;9459;50.254;19.014;2023-02-26T12:04:56;10.63;;;6.40;;
18659;SDS011;9459;50.254;19.014;2023-02-26T12:07:27;10.07;;;5.72;;
18659;SDS011;9459;50.254;19.014;2023-02-26T12:09:58;12.02;;;7.25;;
18659;SDS011;9459;50.254;19.014;2023-02-26T12:12:31;8.90;;;6.03;;
18659;SDS011;9459;50.254;19.014;2023-02-26T12:18:00;11.75;;;4.95;;
18659;SDS011;9459;50.254;19.014;2023-02-26T12:20:53;8.63;;;5.22;;
18659;SDS011;9459;50.254;19.014;2023-02-26T12:23:33;7.88;;;4.78;;
18659;SDS011;9459;50.254;19.014;2023-02-26T12:26:15;7.85;;;4.78;;
18659;SDS011;9459;50.254;19.014;2023-02-26T12:28:51;9.70;;;6.00;;
18659;SDS011;9459;50.254;19.014;2023-02-26T12:31:34;12.25;;;6.35;;
18659;SDS011;9459;50.254;19.014;2023-02-26T12:34:12;11.48;;;6.30;;
18659;SDS011;9459;50.254;19.014;2023-02-26T12:36:52;11.48;;;6.28;;
18659;SDS011;9459;50.254;19.014;2023-02-26T12:39:41;11.45;;;6.30;;
18659;SDS011;9459;50.254;19.014;2023-02-26T12:42:17;9.45;;;5.10;;
18659;SDS011;9459;50.254;19.014;2023-02-26T12:44:58;11.05;;;6.50;;
18659;SDS011;9459;50.254;19.014;2023-02-26T12:47:39;10.88;;;6.03;;
18659;SDS011;9459;50.254;19.014;2023-02-26T12:53:30;10.02;;;5.30;;
18659;SDS011;9459;50.254;19.014;2023-02-26T12:59:16;13.38;;;6.00;;
18659;SDS011;9459;50.254;19.014;2023-02-26T13:02:05;12.70;;;6.28;;
18659;SDS011;9459;50.254;19.014;2023-02-26T13:05:04;9.45;;;5.20;;
18659;SDS011;9459;50.254;19.014;2023-02-26T13:07:46;7.57;;;4.10;;
18659;SDS011;9459;50.254;19.014;2023-02-26T13:10:20;8.60;;;4.03;;
18659;SDS011;9459;50.254;19.014;2023-02-26T13:12:57;6.75;;;3.80;;
18659;SDS011;9459;50.254;19.014;2023-02-26T13:15:37;6.32;;;3.65;;
18659;SDS011;9459;50.254;19.014;2023-02-26T13:18:15;5.60;;;3.53;;
18659;SDS011;9459;50.254;19.014;2023-02-26T13:20:51;8.02;;;4.28;;
18659;SDS011;9459;50.254;19.014;2023-02-26T13:23:24;8.48;;;4.05;;
18659;SDS011;9459;50.254;19.014;2023-02-26T13:25:58;11.48;;;5.93;;
18659;SDS011;9459;50.254;19.014;2023-02-26T13:28:32;28.27;;;13.63;;
18659;SDS011;9459;50.254;19.014;2023-02-26T13:31:05;13.88;;;7.13;;
18659;SDS011;9459;50.254;19.014;2023-02-26T13:33:36;16.42;;;8.00;;
18659;SDS011;9459;50.254;19.014;2023-02-26T13:36:06;16.05;;;7.60;;
18659;SDS011;9459;50.254;19.014;2023-02-26T13:38:37;24.30;;;12.00;;
18659;SDS011;9459;50.254;19.014;2023-02-26T13:41:17;16.10;;;9.30;;
18659;SDS011;9459;50.254;19.014;2023-02-26T13:43:51;8.60;;;5.38;;
18659;SDS011;9459;50.254;19.014;2023-02-26T13:46:34;10.60;;;5.90;;
18659;SDS011;9459;50.254;19.014;2023-02-26T13:49:11;8.43;;;4.97;;
18659;SDS011;9459;50.254;19.014;2023-02-26T13:51:43;17.85;;;9.02;;
18659;SDS011;9459;50.254;19.014;2023-02-26T13:54:32;9.18;;;5.38;;
18659;SDS011;9459;50.254;19.014;2023-02-26T13:57:10;10.40;;;5.53;;
18659;SDS011;9459;50.254;19.014;2023-02-26T13:59:53;8.27;;;5.07;;
18659;SDS011;9459;50.254;19.014;2023-02-26T14:02:48;8.63;;;5.72;;
18659;SDS011;9459;50.254;19.014;2023-02-26T14:05:30;8.48;;;5.72;;
18659;SDS011;9459;50.254;19.014;2023-02-26T14:08:18;9.18;;;5.72;;
18659;SDS011;9459;50.254;19.014;2023-02-26T14:10:54;9.20;;;4.20;;
18659;SDS011;9459;50.254;19.014;2023-02-26T14:13:32;9.10;;;4.85;;
18659;SDS011;9459;50.254;19.014;2023-02-26T14:16:09;9.85;;;5.47;;
18659;SDS011;9459;50.254;19.014;2023-02-26T14:18:48;11.10;;;5.82;;
18659;SDS011;9459;50.254;19.014;2023-02-26T14:21:34;13.75;;;7.22;;
18659;SDS011;9459;50.254;19.014;2023-02-26T14:24:05;12.10;;;6.03;;
18659;SDS011;9459;50.254;19.014;2023-02-26T14:26:43;11.00;;;6.75;;
18659;SDS011;9459;50.254;19.014;2023-02-26T14:29:15;11.30;;;6.15;;
18659;SDS011;9459;50.254;19.014;2023-02-26T14:32:10;14.02;;;6.60;;
18659;SDS011;9459;50.254;19.014;2023-02-26T14:34:45;10.00;;;4.53;;
18659;SDS011;9459;50.254;19.014;2023-02-26T14:37:17;9.10;;;5.32;;
18659;SDS011;9459;50.254;19.014;2023-02-26T14:39:48;11.52;;;5.22;;
18659;SDS011;9459;50.254;19.014;2023-02-26T14:42:22;9.75;;;5.43;;
18659;SDS011;9459;50.254;19.014;2023-02-26T14:45:00;8.80;;;5.03;;
18659;SDS011;9459;50.254;19.014;2023-02-26T14:47:33;6.85;;;4.10;;
18659;SDS011;9459;50.254;19.014;2023-02-26T14:50:04;9.23;;;4.20;;
18659;SDS011;9459;50.254;19.014;2023-02-26T14:52:47;10.05;;;5.15;;
18659;SDS011;9459;50.254;19.014;2023-02-26T14:55:44;7.93;;;4.55;;
18659;SDS011;9459;50.254;19.014;2023-02-26T14:58:29;9.63;;;4.38;;
18659;SDS011;9459;50.254;19.014;2023-02-26T15:01:09;8.57;;;4.03;;
18659;SDS011;9459;50.254;19.014;2023-02-26T15:03:52;10.93;;;4.63;;
18659;SDS011;9459;50.254;19.014;2023-02-26T15:09:29;10.30;;;5.68;;
18659;SDS011;9459;50.254;19.014;2023-02-26T15:12:05;11.32;;;5.07;;
18659;SDS011;9459;50.254;19.014;2023-02-26T15:17:45;9.55;;;4.90;;
18659;SDS011;9459;50.254;19.014;2023-02-26T15:20:22;11.75;;;5.28;;
18659;SDS011;9459;50.254;19.014;2023-02-26T15:23:05;8.15;;;4.57;;
18659;SDS011;9459;50.254;19.014;2023-02-26T15:25:42;11.77;;;5.35;;
18659;SDS011;9459;50.254;19.014;2023-02-26T15:28:13;13.02;;;7.00;;
18659;SDS011;9459;50.254;19.014;2023-02-26T15:30:47;12.05;;;6.18;;
18659;SDS011;9459;50.254;19.014;2023-02-26T15:33:18;10.07;;;4.75;;
18659;SDS011;9459;50.254;19.014;2023-02-26T15:35:48;9.27;;;4.97;;